createdAt,value
2019-04-14T00:01:23.750Z,26.90
2019-04-14T00:04:11.453Z,27.00
2019-04-14T00:06:41.933Z,27.00
2019-04-14T00:09:14.194Z,27.00
2019-04-14T00:11:42.159Z,26.90
2019-04-14T00:14:11.793Z,26.90
2019-04-14T00:16:40.520Z,26.90
2019-04-14T00:19:09.342Z,27.00
2019-04-14T00:21:38.935Z,26.90
2019-04-14T00:24:07.789Z,27.00
2019-04-14T00:26:37.830Z,26.90
2019-04-14T00:29:06.818Z,26.90
2019-04-14T00:31:35.535Z,26.90
2019-04-14T00:34:07.136Z,26.90
2019-04-14T00:36:43.764Z,26.90
2019-04-14T00:39:14.176Z,26.90
2019-04-14T00:41:50.892Z,26.90
2019-04-14T00:44:19.007Z,26.90
2019-04-14T00:46:52.074Z,26.90
2019-04-14T00:49:20.655Z,27.00
2019-04-14T00:51:50.644Z,27.00
2019-04-14T00:54:19.612Z,27.00
2019-04-14T00:56:48.341Z,27.00
2019-04-14T00:59:17.937Z,27.00
2019-04-14T01:01:46.519Z,27.00
2019-04-14T01:04:15.131Z,27.00
2019-04-14T01:06:44.838Z,27.00
2019-04-14T01:09:15.159Z,27.00
2019-04-14T01:11:44.329Z,27.00
2019-04-14T01:14:12.975Z,27.00
2019-04-14T01:16:42.907Z,27.00
2019-04-14T01:19:11.628Z,27.00
2019-04-14T01:21:41.310Z,27.00
2019-04-14T01:24:10.007Z,27.00
2019-04-14T01:26:39.914Z,27.00
2019-04-14T01:29:08.586Z,27.00
2019-04-14T01:31:38.228Z,27.00
2019-04-14T01:34:06.839Z,27.00
2019-04-14T01:36:36.587Z,27.00
2019-04-14T01:39:06.979Z,27.00
2019-04-14T01:41:36.716Z,27.00
2019-04-14T01:44:06.732Z,27.00
2019-04-14T01:46:35.843Z,27.00
2019-04-14T01:49:05.716Z,27.00
2019-04-14T01:51:48.426Z,26.90
2019-04-14T01:54:19.253Z,27.00
2019-04-14T01:56:49.596Z,27.00
2019-04-14T01:59:19.772Z,27.00
2019-04-14T02:01:50.023Z,27.00
2019-04-14T02:04:18.730Z,27.00
2019-04-14T02:06:48.407Z,27.00
2019-04-14T02:09:18.564Z,27.00
2019-04-14T02:11:47.306Z,27.00
2019-04-14T02:14:16.848Z,27.00
2019-04-14T02:16:52.167Z,27.00
2019-04-14T02:19:15.884Z,27.00
2019-04-14T02:21:45.512Z,27.00
2019-04-14T02:24:15.601Z,26.90
2019-04-14T02:26:44.349Z,26.90
2019-04-14T02:29:14.363Z,27.00
2019-04-14T02:32:09.962Z,27.00
2019-04-14T02:34:42.164Z,26.90
2019-04-14T02:37:10.808Z,27.00
2019-04-14T02:39:48.376Z,26.90
2019-04-14T02:44:44.259Z,27.00
2019-04-14T02:47:36.345Z,26.90
2019-04-14T02:54:52.222Z,27.00
2019-04-14T02:57:17.365Z,26.90
2019-04-14T03:04:49.177Z,27.00
2019-04-14T03:07:23.036Z,26.90
2019-04-14T03:09:48.422Z,26.90
2019-04-14T03:12:31.636Z,26.90
2019-04-14T03:17:35.221Z,26.90
2019-04-14T03:22:50.967Z,26.90
2019-04-14T03:25:22.637Z,26.90
2019-04-14T03:28:02.562Z,26.90
2019-04-14T03:36:16.659Z,26.90
2019-04-14T03:38:18.446Z,26.90
2019-04-14T03:40:45.798Z,26.90
2019-04-14T03:45:54.740Z,26.90
2019-04-14T03:50:48.561Z,26.90
2019-04-14T03:53:22.200Z,26.80
2019-04-14T03:55:54.343Z,26.90
2019-04-14T03:58:18.453Z,26.80
2019-04-14T04:00:47.095Z,26.90
2019-04-14T04:03:17.141Z,26.80
2019-04-14T04:05:46.128Z,26.80
2019-04-14T04:08:15.745Z,26.80
2019-04-14T04:10:46.480Z,26.90
2019-04-14T04:13:17.831Z,26.80
2019-04-14T04:15:47.573Z,26.90
2019-04-14T04:18:24.123Z,26.80
2019-04-14T04:20:57.075Z,26.80
2019-04-14T04:23:33.607Z,26.80
2019-04-14T04:26:06.352Z,26.80
2019-04-14T04:28:36.646Z,26.90
2019-04-14T04:31:06.932Z,26.90
2019-04-14T04:33:54.425Z,27.30
2019-04-14T04:36:31.286Z,26.80
2019-04-14T04:39:04.018Z,26.80
2019-04-14T04:41:33.728Z,26.90
2019-04-14T04:44:02.923Z,26.90
2019-04-14T04:46:31.575Z,26.80
2019-04-14T04:49:09.559Z,26.80
2019-04-14T04:51:31.112Z,26.80
2019-04-14T04:53:59.812Z,26.80
2019-04-14T04:56:29.668Z,26.80
2019-04-14T04:58:58.923Z,26.80
2019-04-14T05:01:27.559Z,26.80
2019-04-14T05:03:56.357Z,26.80
2019-04-14T05:07:01.303Z,26.80
2019-04-14T05:09:33.759Z,26.80
2019-04-14T05:12:21.951Z,26.80
2019-04-14T05:15:01.171Z,26.80
2019-04-14T05:17:32.023Z,26.80
2019-04-14T05:20:00.836Z,26.80
2019-04-14T05:22:33.762Z,26.90
2019-04-14T05:25:03.511Z,26.80
2019-04-14T05:27:32.235Z,26.80
2019-04-14T05:30:00.904Z,26.80
2019-04-14T05:32:30.533Z,26.80
2019-04-14T05:34:59.210Z,26.80
2019-04-14T05:37:28.964Z,26.80
2019-04-14T05:39:57.571Z,26.80
2019-04-14T05:42:27.499Z,26.80
2019-04-14T05:44:56.421Z,26.90
2019-04-14T05:47:26.113Z,26.90
2019-04-14T05:49:56.520Z,26.90
2019-04-14T05:52:25.251Z,26.90
2019-04-14T05:54:53.917Z,26.90
2019-04-14T05:57:22.499Z,26.90
2019-04-14T05:59:51.151Z,26.90
2019-04-14T06:02:20.236Z,26.90
2019-04-14T06:04:48.838Z,26.90
2019-04-14T06:07:17.430Z,26.90
2019-04-14T06:09:46.085Z,26.90
2019-04-14T06:12:14.808Z,26.90
2019-04-14T06:14:43.455Z,26.90
2019-04-14T06:17:12.065Z,26.90
2019-04-14T06:19:40.830Z,26.90
2019-04-14T06:22:09.445Z,26.80
2019-04-14T06:24:38.050Z,26.90
2019-04-14T06:27:06.698Z,26.90
2019-04-14T06:29:35.446Z,26.90
2019-04-14T06:32:05.802Z,26.90
2019-04-14T06:34:47.929Z,26.90
2019-04-14T06:37:30.020Z,26.90
2019-04-14T06:40:00.311Z,26.90
2019-04-14T06:42:28.943Z,26.90
2019-04-14T06:44:57.547Z,26.90
2019-04-14T06:47:29.357Z,26.90
2019-04-14T06:49:57.938Z,26.90
2019-04-14T06:52:26.651Z,26.90
2019-04-14T06:54:55.298Z,26.90
2019-04-14T06:57:23.942Z,26.90
2019-04-14T06:59:52.585Z,26.90
2019-04-14T07:02:21.330Z,26.90
2019-04-14T07:04:49.984Z,27.00
2019-04-14T07:07:18.689Z,26.90
2019-04-14T07:09:47.378Z,26.90
2019-04-14T07:12:16.055Z,26.90
2019-04-14T07:14:44.702Z,27.00
2019-04-14T07:17:13.300Z,27.00
2019-04-14T07:19:42.003Z,27.00
2019-04-14T07:22:10.682Z,27.00
2019-04-14T07:24:39.283Z,27.00
2019-04-14T07:27:07.918Z,26.90
2019-04-14T07:29:38.440Z,26.90
2019-04-14T07:32:11.407Z,27.00
2019-04-14T07:34:59.543Z,27.00
2019-04-14T07:37:32.520Z,27.00
2019-04-14T07:40:05.737Z,27.10
2019-04-14T07:42:47.924Z,27.10
2019-04-14T07:45:24.230Z,27.10
2019-04-14T07:47:54.578Z,27.10
2019-04-14T07:50:36.597Z,27.20
2019-04-14T07:53:07.026Z,27.10
2019-04-14T07:55:40.057Z,27.20
2019-04-14T07:58:26.311Z,27.20
2019-04-14T08:01:12.925Z,27.20
2019-04-14T08:03:55.139Z,27.20
2019-04-14T08:06:23.742Z,27.20
2019-04-14T08:08:52.331Z,27.30
2019-04-14T08:11:20.914Z,27.20
2019-04-14T08:13:49.605Z,27.20
2019-04-14T08:16:18.262Z,27.30
2019-04-14T08:18:46.895Z,27.30
2019-04-14T08:21:15.624Z,27.30
2019-04-14T08:23:44.203Z,27.40
2019-04-14T08:26:12.942Z,27.40
2019-04-14T08:28:41.642Z,27.50
2019-04-14T08:31:10.415Z,27.50
2019-04-14T08:33:39.057Z,27.40
2019-04-14T08:36:07.710Z,27.50
2019-04-14T08:38:37.715Z,27.40
2019-04-14T08:41:06.265Z,27.50
2019-04-14T08:43:48.359Z,27.50
2019-04-14T08:46:30.689Z,27.50
2019-04-14T08:49:03.896Z,27.50
2019-04-14T08:51:50.114Z,27.60
2019-04-14T08:54:35.427Z,27.60
2019-04-14T08:57:05.750Z,27.60
2019-04-14T08:59:43.371Z,27.60
2019-04-14T09:02:13.633Z,27.60
2019-04-14T09:04:46.599Z,27.60
2019-04-14T09:07:31.519Z,27.60
2019-04-14T09:10:16.906Z,27.60
2019-04-14T09:12:47.174Z,27.60
2019-04-14T09:15:15.855Z,27.60
2019-04-14T09:17:44.544Z,27.60
2019-04-14T09:20:13.262Z,27.60
2019-04-14T09:22:41.839Z,27.60
2019-04-14T09:25:10.587Z,27.60
2019-04-14T09:27:39.255Z,27.60
2019-04-14T09:30:10.797Z,27.70
2019-04-14T09:32:39.465Z,27.60
2019-04-14T09:35:08.174Z,27.60
2019-04-14T09:37:36.837Z,27.60
2019-04-14T09:40:05.760Z,27.60
2019-04-14T09:42:34.428Z,27.60
2019-04-14T09:45:03.238Z,27.60
2019-04-14T09:47:31.851Z,27.70
2019-04-14T09:50:00.430Z,27.70
2019-04-14T09:52:29.109Z,27.70
2019-04-14T09:54:57.799Z,27.70
2019-04-14T09:57:26.440Z,27.70
2019-04-14T09:59:55.094Z,27.60
2019-04-14T10:02:23.781Z,28.20
2019-04-14T10:04:52.394Z,27.70
2019-04-14T10:07:21.080Z,27.70
2019-04-14T10:09:49.772Z,27.70
2019-04-14T10:12:18.348Z,27.70
2019-04-14T10:14:47.011Z,27.80
2019-04-14T10:17:15.681Z,27.70
2019-04-14T10:19:44.336Z,27.70
2019-04-14T10:22:13.013Z,27.80
2019-04-14T10:24:41.712Z,27.80
2019-04-14T10:27:10.275Z,27.80
2019-04-14T10:29:39.006Z,27.80
2019-04-14T10:32:07.674Z,27.80
2019-04-14T10:34:36.270Z,27.70
2019-04-14T10:37:04.982Z,27.80
2019-04-14T10:39:33.623Z,27.80
2019-04-14T10:42:02.300Z,27.80
2019-04-14T10:44:34.983Z,27.80
2019-04-14T10:47:03.779Z,27.80
2019-04-14T10:49:32.388Z,27.80
2019-04-14T10:52:00.991Z,27.80
2019-04-14T10:54:29.621Z,27.80
2019-04-14T10:57:00.920Z,27.80
2019-04-14T10:59:28.449Z,27.80
2019-04-14T11:01:57.126Z,27.80
2019-04-14T11:04:25.774Z,27.80
2019-04-14T11:07:01.596Z,27.80
2019-04-14T11:09:30.239Z,27.90
2019-04-14T11:11:58.906Z,27.90
2019-04-14T11:14:27.555Z,27.90
2019-04-14T11:16:56.230Z,27.80
2019-04-14T11:19:24.873Z,27.80
2019-04-14T11:21:53.579Z,27.80
2019-04-14T11:24:24.042Z,27.80
2019-04-14T11:26:52.949Z,27.90
2019-04-14T11:29:21.687Z,27.90
2019-04-14T11:31:57.815Z,27.90
2019-04-14T11:34:39.641Z,27.90
2019-04-14T11:37:15.426Z,28.00
2019-04-14T11:39:45.702Z,27.90
2019-04-14T11:42:14.329Z,28.00
2019-04-14T11:44:43.905Z,27.90
2019-04-14T11:47:12.638Z,28.00
2019-04-14T11:49:41.240Z,28.00
2019-04-14T11:52:09.958Z,28.00
2019-04-14T11:54:38.627Z,28.00
2019-04-14T11:57:07.261Z,28.00
2019-04-14T11:59:43.342Z,28.00
2019-04-14T12:02:19.502Z,28.00
2019-04-14T12:04:49.791Z,28.00
2019-04-14T12:07:20.121Z,28.00
2019-04-14T12:10:05.296Z,28.00
2019-04-14T12:12:34.111Z,28.00
2019-04-14T12:15:02.778Z,28.00
2019-04-14T12:17:31.475Z,28.00
2019-04-14T12:20:00.094Z,28.00
2019-04-14T12:22:28.762Z,28.00
2019-04-14T12:24:57.352Z,28.00
2019-04-14T12:27:30.254Z,28.00
2019-04-14T12:29:58.964Z,28.00
2019-04-14T12:32:29.337Z,28.00
2019-04-14T12:34:58.035Z,28.00
2019-04-14T12:37:29.738Z,28.00
2019-04-14T12:39:58.355Z,28.00
2019-04-14T12:42:34.091Z,28.00
2019-04-14T12:45:24.914Z,28.00
2019-04-14T12:47:58.127Z,28.00
2019-04-14T12:50:31.425Z,28.00
2019-04-14T12:53:00.132Z,28.00
2019-04-14T12:55:28.894Z,28.00
2019-04-14T12:57:59.115Z,28.00
2019-04-14T13:00:35.340Z,28.00
2019-04-14T13:03:04.058Z,28.00
2019-04-14T13:05:32.657Z,28.00
2019-04-14T13:08:01.297Z,28.00
2019-04-14T13:10:30.016Z,28.00
2019-04-14T13:12:58.702Z,28.00
2019-04-14T13:15:27.391Z,28.00
2019-04-14T13:17:56.078Z,28.10
2019-04-14T13:20:24.728Z,28.00
2019-04-14T13:22:53.415Z,28.00
2019-04-14T13:25:22.091Z,28.00
2019-04-14T13:27:51.229Z,28.00
2019-04-14T13:30:21.788Z,28.00
2019-04-14T13:32:50.459Z,28.00
2019-04-14T13:35:19.094Z,28.00
2019-04-14T13:37:47.750Z,28.00
2019-04-14T13:40:16.638Z,28.00
2019-04-14T13:42:45.254Z,28.00
2019-04-14T13:45:14.019Z,28.00
2019-04-14T13:47:42.615Z,28.00
2019-04-14T13:50:11.560Z,28.00
2019-04-14T13:52:46.525Z,28.00
2019-04-14T13:55:10.835Z,27.90
2019-04-14T13:57:39.487Z,27.90
2019-04-14T14:00:13.438Z,27.90
2019-04-14T14:02:43.067Z,27.90
2019-04-14T14:05:12.105Z,27.90
2019-04-14T14:07:40.675Z,27.90
2019-04-14T14:10:09.826Z,28.00
2019-04-14T14:12:51.900Z,28.00
2019-04-14T14:15:25.051Z,27.90
2019-04-14T14:17:55.350Z,27.90
2019-04-14T14:20:37.509Z,27.90
2019-04-14T14:23:23.927Z,27.90
2019-04-14T14:26:09.136Z,27.90
2019-04-14T14:28:38.799Z,27.80
2019-04-14T14:31:07.402Z,27.80
2019-04-14T14:33:36.046Z,27.80
2019-04-14T14:36:04.818Z,27.80
2019-04-14T14:38:33.383Z,27.80
2019-04-14T14:41:03.645Z,27.80
2019-04-14T14:43:32.238Z,27.70
2019-04-14T14:46:02.499Z,27.80
2019-04-14T14:48:47.592Z,27.70
2019-04-14T14:51:20.559Z,27.70
2019-04-14T14:53:49.189Z,27.70
2019-04-14T14:56:17.836Z,27.70
2019-04-14T14:58:46.491Z,27.60
2019-04-14T15:01:15.447Z,27.60
2019-04-14T15:03:44.096Z,27.70
2019-04-14T15:06:12.862Z,27.60
2019-04-14T15:08:41.495Z,27.60
2019-04-14T15:11:10.228Z,27.60
2019-04-14T15:13:38.883Z,27.60
2019-04-14T15:16:08.831Z,27.60
2019-04-14T15:18:37.526Z,27.60
2019-04-14T15:21:06.264Z,27.60
2019-04-14T15:23:34.981Z,27.60
2019-04-14T15:26:03.790Z,27.60
2019-04-14T15:28:36.810Z,27.60
2019-04-14T15:31:05.485Z,27.60
2019-04-14T15:33:34.138Z,27.60
2019-04-14T15:36:02.913Z,27.60
2019-04-14T15:38:31.508Z,27.60
2019-04-14T15:41:00.215Z,27.60
2019-04-14T15:43:28.797Z,27.60
2019-04-14T15:45:57.395Z,27.60
2019-04-14T15:48:25.983Z,27.50
2019-04-14T15:50:56.410Z,27.50
2019-04-14T15:53:37.012Z,27.50
2019-04-14T15:55:55.530Z,27.50
2019-04-14T15:58:25.777Z,27.50
2019-04-14T16:00:56.152Z,27.50
2019-04-14T16:03:38.208Z,27.50
2019-04-14T16:06:14.495Z,27.40
2019-04-14T16:09:00.483Z,27.50
2019-04-14T16:11:45.720Z,27.40
2019-04-14T16:14:22.926Z,27.40
2019-04-14T16:16:56.198Z,27.40
2019-04-14T16:19:26.413Z,27.40
2019-04-14T16:21:54.980Z,27.40
2019-04-14T16:24:23.658Z,27.40
2019-04-14T16:26:53.962Z,27.40
2019-04-14T16:29:24.316Z,27.30
2019-04-14T16:32:09.049Z,27.30
2019-04-14T16:34:45.621Z,27.30
2019-04-14T16:37:17.149Z,27.30
2019-04-14T16:39:45.805Z,27.30
2019-04-14T16:42:14.402Z,27.30
2019-04-14T16:44:42.983Z,27.20
2019-04-14T16:47:11.664Z,27.30
2019-04-14T16:49:40.341Z,27.20
2019-04-14T16:52:10.585Z,27.20
2019-04-14T16:54:40.856Z,27.20
2019-04-14T16:57:29.030Z,27.20
2019-04-14T16:59:57.446Z,27.20
2019-04-14T17:02:26.068Z,27.10
2019-04-14T17:04:54.756Z,27.20
2019-04-14T17:07:23.417Z,27.20
2019-04-14T17:09:52.090Z,27.10
2019-04-14T17:12:20.734Z,27.10
2019-04-14T17:14:59.788Z,27.10
2019-04-14T17:17:42.096Z,27.10
2019-04-14T17:20:12.484Z,27.10
2019-04-14T17:22:45.493Z,27.10
2019-04-14T17:25:30.389Z,27.10
2019-04-14T17:28:00.737Z,27.10
2019-04-14T17:30:39.730Z,27.10
2019-04-14T17:33:12.901Z,27.60
2019-04-14T17:35:59.393Z,27.10
2019-04-14T17:38:38.595Z,27.20
2019-04-14T17:41:20.421Z,27.20
2019-04-14T17:43:56.716Z,27.10
2019-04-14T17:46:26.948Z,27.10
2019-04-14T17:49:13.209Z,27.10
2019-04-14T17:51:49.077Z,27.10
2019-04-14T17:54:37.431Z,27.10
2019-04-14T17:57:07.786Z,27.10
2019-04-14T17:59:38.124Z,27.10
2019-04-14T18:02:08.491Z,27.10
2019-04-14T18:04:41.495Z,27.10
2019-04-14T18:07:23.525Z,27.10
2019-04-14T18:09:56.334Z,27.10
2019-04-14T18:12:29.398Z,27.10
2019-04-14T18:15:05.021Z,27.00
2019-04-14T18:17:43.866Z,27.10
2019-04-14T18:20:14.356Z,27.00
2019-04-14T18:22:42.934Z,27.00
2019-04-14T18:25:14.691Z,27.10
2019-04-14T18:27:44.979Z,27.10
2019-04-14T18:30:19.054Z,27.10
2019-04-14T18:32:49.382Z,27.10
2019-04-14T18:35:37.704Z,27.10
2019-04-14T18:38:07.917Z,27.10
2019-04-14T18:40:38.185Z,27.10
2019-04-14T18:43:11.130Z,27.10
2019-04-14T18:45:47.091Z,27.10
2019-04-14T18:48:25.813Z,27.10
2019-04-14T18:51:10.598Z,27.00
2019-04-14T18:54:00.064Z,27.00
2019-04-14T18:56:46.087Z,27.00
2019-04-14T18:59:22.125Z,27.00
2019-04-14T19:01:52.455Z,27.00
2019-04-14T19:04:21.157Z,27.00
2019-04-14T19:06:49.851Z,27.00
2019-04-14T19:09:18.490Z,27.00
2019-04-14T19:12:00.660Z,27.00
2019-04-14T19:14:36.795Z,27.10
2019-04-14T19:17:07.008Z,27.00
2019-04-14T19:19:39.973Z,27.00
2019-04-14T19:22:08.690Z,27.10
2019-04-14T19:24:41.352Z,27.00
2019-04-14T19:27:10.005Z,27.00
2019-04-14T19:29:38.771Z,27.10
2019-04-14T19:32:07.343Z,27.10
2019-04-14T19:34:36.577Z,27.00
2019-04-14T19:37:05.257Z,27.00
2019-04-14T19:39:33.913Z,27.10
2019-04-14T19:42:02.524Z,27.00
2019-04-14T19:44:31.112Z,27.00
2019-04-14T19:46:59.784Z,27.00
2019-04-14T19:49:30.893Z,27.10
2019-04-14T19:51:59.533Z,27.00
2019-04-14T19:54:28.157Z,27.00
2019-04-14T19:56:56.761Z,27.00
2019-04-14T19:59:25.368Z,27.00
2019-04-14T20:01:53.994Z,27.00
2019-04-14T20:04:22.615Z,27.00
2019-04-14T20:06:51.278Z,27.00
2019-04-14T20:09:19.994Z,27.00
2019-04-14T20:11:48.569Z,27.00
2019-04-14T20:14:18.706Z,27.00
2019-04-14T20:16:54.992Z,27.00
2019-04-14T20:19:27.719Z,27.00
2019-04-14T20:21:57.946Z,27.10
2019-04-14T20:24:36.887Z,27.10
2019-04-14T20:27:22.252Z,27.10
2019-04-14T20:29:52.504Z,27.10
2019-04-14T20:32:22.885Z,27.10
2019-04-14T20:34:51.499Z,27.10
2019-04-14T20:37:20.085Z,27.10
2019-04-14T20:39:48.820Z,27.10
2019-04-14T20:42:17.483Z,27.10
2019-04-14T20:44:46.174Z,27.10
2019-04-14T20:47:14.864Z,27.10
2019-04-14T20:49:43.554Z,27.10
2019-04-14T20:52:13.982Z,27.10
2019-04-14T20:54:42.700Z,27.10
2019-04-14T20:57:11.330Z,27.10
2019-04-14T20:59:39.935Z,27.10
2019-04-14T21:02:26.295Z,27.10
2019-04-14T21:05:02.617Z,27.10
2019-04-14T21:07:38.984Z,27.10
2019-04-14T21:10:09.358Z,27.10
2019-04-14T21:12:48.503Z,27.10
2019-04-14T21:15:21.435Z,27.10
2019-04-14T21:17:54.199Z,27.10
2019-04-14T21:20:24.412Z,27.10
2019-04-14T21:23:00.525Z,27.10
2019-04-14T21:25:33.833Z,27.10
2019-04-14T21:28:10.108Z,27.10
2019-04-14T21:30:52.198Z,27.10
2019-04-14T21:33:38.488Z,27.10
2019-04-14T21:36:08.779Z,27.10
2019-04-14T21:38:41.882Z,27.10
2019-04-14T21:41:28.320Z,27.10
2019-04-14T21:43:56.898Z,27.10
2019-04-14T21:46:25.606Z,27.20
2019-04-14T21:48:54.269Z,27.20
2019-04-14T21:51:24.540Z,27.20
2019-04-14T21:53:53.118Z,27.20
2019-04-14T21:56:27.543Z,27.20
2019-04-14T21:58:57.797Z,27.20
2019-04-14T22:01:52.131Z,27.20
2019-04-14T22:04:31.486Z,27.20
2019-04-14T22:07:17.576Z,27.10
2019-04-14T22:09:46.402Z,27.20
2019-04-14T22:12:15.137Z,27.20
2019-04-14T22:14:43.768Z,27.20
2019-04-14T22:17:12.413Z,27.20
2019-04-14T22:19:41.085Z,27.20
2019-04-14T22:22:13.918Z,27.20
2019-04-14T22:24:42.630Z,27.30
2019-04-14T22:27:11.327Z,27.20
2019-04-14T22:29:40.043Z,27.30
2019-04-14T22:32:08.739Z,27.70
2019-04-14T22:34:37.424Z,27.30
2019-04-14T22:37:06.122Z,27.20
2019-04-14T22:39:34.769Z,27.30
2019-04-14T22:42:05.887Z,27.30
2019-04-14T22:44:34.571Z,27.30
2019-04-14T22:47:03.148Z,27.30
2019-04-14T22:49:31.823Z,27.40
2019-04-14T22:52:00.459Z,27.40
2019-04-14T22:54:29.215Z,27.40
2019-04-14T22:56:57.819Z,27.40
2019-04-14T22:59:26.500Z,27.30
2019-04-14T23:02:05.688Z,27.30
2019-04-14T23:04:38.648Z,27.40
2019-04-14T23:07:08.893Z,27.30
2019-04-14T23:09:39.199Z,27.40
2019-04-14T23:12:18.038Z,27.30
2019-04-14T23:14:57.345Z,27.40
2019-04-14T23:17:39.245Z,27.30
2019-04-14T23:20:12.929Z,27.40
2019-04-14T23:22:46.371Z,27.40
2019-04-14T23:25:15.106Z,27.40
2019-04-14T23:27:43.771Z,27.40
2019-04-14T23:30:12.660Z,27.40
2019-04-14T23:32:41.291Z,27.40
2019-04-14T23:35:10.047Z,27.40
2019-04-14T23:37:38.916Z,27.40
2019-04-14T23:40:08.405Z,27.40
2019-04-14T23:42:37.011Z,27.40
2019-04-14T23:45:07.179Z,27.40
2019-04-14T23:47:35.922Z,27.40
2019-04-14T23:50:06.584Z,27.40
2019-04-14T23:52:35.267Z,27.50
2019-04-14T23:55:05.522Z,27.50
2019-04-14T23:57:34.264Z,27.50
